Time;durP1;ratioP1;P1;durP2;ratioP2;P2;SDS_P1;SDS_P2;PMS_P1;PMS_P2;Temp;Humidity;BMP_temperature;BMP_pressure;BME280_temperature;BME280_humidity;BME280_pressure;Samples;Min_cycle;Max_cycle;Signal;HPM_P1;HPM_P2
2024/01/18 00:02:09;;;;;;;9.38;5.18;;;;;;;;;;5093355;28;20035;-70
2024/01/18 00:04:55;;;;;;;12.70;5.22;;;;;;;;;;5093540;28;20485;-70
2024/01/18 00:07:40;;;;;;;11.27;5.82;;;;;;;;;;5092811;28;20039;-70
2024/01/18 00:10:27;;;;;;;12.02;6.30;;;;;;;;;;5093228;28;20074;-70
2024/01/18 00:13:13;;;;;;;10.18;5.35;;;;;;;;;;5092822;28;20405;-70
2024/01/18 00:15:59;;;;;;;9.80;5.57;;;;;;;;;;5094243;28;20031;-70
2024/01/18 00:18:44;;;;;;;10.02;4.68;;;;;;;;;;5092445;28;20104;-70
2024/01/18 00:21:30;;;;;;;12.80;5.57;;;;;;;;;;5078136;28;20095;-70
2024/01/18 00:24:16;;;;;;;9.38;6.68;;;;;;;;;;5092570;28;20020;-70
2024/01/18 00:27:01;;;;;;;11.13;5.35;;;;;;;;;;5077833;28;20071;-70
2024/01/18 00:29:47;;;;;;;10.25;5.43;;;;;;;;;;5092567;28;20015;-70
2024/01/18 00:32:33;;;;;;;11.93;4.78;;;;;;;;;;5092707;28;20027;-70
2024/01/18 00:35:18;;;;;;;10.45;7.03;;;;;;;;;;5092082;28;20063;-69
2024/01/18 00:38:04;;;;;;;13.85;5.82;;;;;;;;;;5077985;28;20049;-71
2024/01/18 00:40:50;;;;;;;9.98;5.45;;;;;;;;;;5077410;28;20024;-70
2024/01/18 00:43:35;;;;;;;9.10;5.28;;;;;;;;;;5078819;28;20032;-70
2024/01/18 00:46:21;;;;;;;14.32;5.53;;;;;;;;;;5092975;28;20016;-71
2024/01/18 00:49:07;;;;;;;9.57;4.57;;;;;;;;;;5091357;28;20454;-71
2024/01/18 00:51:52;;;;;;;9.63;5.57;;;;;;;;;;5092255;28;20024;-71
2024/01/18 00:54:38;;;;;;;10.13;5.97;;;;;;;;;;5076902;28;20077;-71
2024/01/18 00:57:23;;;;;;;9.15;5.40;;;;;;;;;;5092358;28;20489;-70
2024/01/18 01:00:09;;;;;;;14.27;4.85;;;;;;;;;;5092071;28;20020;-71
2024/01/18 01:02:55;;;;;;;6.45;4.80;;;;;;;;;;5092377;28;20020;-70
2024/01/18 01:05:41;;;;;;;9.32;5.90;;;;;;;;;;5092088;28;20020;-71
2024/01/18 01:08:27;;;;;;;7.95;5.03;;;;;;;;;;5092124;28;20020;-71
2024/01/18 01:11:13;;;;;;;11.15;4.20;;;;;;;;;;5091943;28;20032;-70
2024/01/18 01:13:58;;;;;;;7.75;4.25;;;;;;;;;;5091632;28;20024;-71
2024/01/18 01:16:44;;;;;;;7.72;4.90;;;;;;;;;;5092452;28;20020;-71
2024/01/18 01:19:30;;;;;;;9.57;5.07;;;;;;;;;;5092172;28;20020;-70
2024/01/18 01:22:15;;;;;;;8.45;5.30;;;;;;;;;;5091528;28;20090;-70
2024/01/18 01:25:01;;;;;;;8.23;3.60;;;;;;;;;;5092039;28;20024;-71
2024/01/18 01:27:47;;;;;;;7.95;3.45;;;;;;;;;;5093115;28;20503;-70
2024/01/18 01:30:33;;;;;;;9.20;5.00;;;;;;;;;;5095711;28;20023;-71
2024/01/18 01:33:19;;;;;;;9.70;5.00;;;;;;;;;;5095654;28;20107;-71
2024/01/18 01:36:05;;;;;;;9.32;4.35;;;;;;;;;;5096352;28;20031;-70
2024/01/18 01:38:50;;;;;;;9.65;5.25;;;;;;;;;;5080387;28;20111;-71
2024/01/18 01:41:36;;;;;;;9.00;5.45;;;;;;;;;;5095441;28;20024;-71
2024/01/18 01:44:22;;;;;;;6.22;3.95;;;;;;;;;;5095897;28;20055;-70
2024/01/18 01:47:07;;;;;;;5.75;4.25;;;;;;;;;;5095714;28;20074;-70
2024/01/18 01:49:53;;;;;;;6.78;4.32;;;;;;;;;;5095698;28;20024;-71
2024/01/18 01:52:39;;;;;;;8.43;4.95;;;;;;;;;;5095635;28;20480;-71
2024/01/18 01:55:25;;;;;;;7.03;4.25;;;;;;;;;;5081508;28;20024;-70
2024/01/18 01:58:12;;;;;;;6.20;3.53;;;;;;;;;;5094782;28;20028;-70
2024/01/18 02:00:57;;;;;;;5.88;3.75;;;;;;;;;;5080669;28;20420;-71
2024/01/18 02:03:43;;;;;;;10.90;5.00;;;;;;;;;;5095346;28;20024;-71
2024/01/18 02:06:33;;;;;;;8.18;3.88;;;;;;;;;;5095663;28;20028;-71
2024/01/18 02:09:19;;;;;;;6.35;3.47;;;;;;;;;;5081810;28;20106;-71
2024/01/18 02:12:05;;;;;;;5.20;3.97;;;;;;;;;;5080294;28;20016;-70
2024/01/18 02:14:51;;;;;;;4.72;3.42;;;;;;;;;;5080321;28;20020;-70
2024/01/18 02:17:36;;;;;;;9.20;5.20;;;;;;;;;;5081325;28;20058;-70
2024/01/18 02:20:22;;;;;;;6.85;3.63;;;;;;;;;;5094483;28;20359;-70
2024/01/18 02:23:09;;;;;;;10.15;4.28;;;;;;;;;;5080084;28;20064;-71
2024/01/18 02:25:54;;;;;;;6.70;4.05;;;;;;;;;;5095212;28;20111;-70
2024/01/18 02:28:54;;;;;;;9.05;4.70;;;;;;;;;;5094251;28;20505;-70
2024/01/18 02:31:39;;;;;;;20.73;3.80;;;;;;;;;;5081197;28;20115;-71
2024/01/18 02:34:25;;;;;;;7.97;3.78;;;;;;;;;;5094869;28;20020;-70
2024/01/18 02:37:11;;;;;;;9.65;4.43;;;;;;;;;;5094497;28;20024;-70
2024/01/18 02:39:57;;;;;;;5.85;2.97;;;;;;;;;;5094829;28;20367;-70
2024/01/18 02:42:43;;;;;;;4.85;3.40;;;;;;;;;;5095378;28;20027;-70
2024/01/18 02:45:29;;;;;;;11.02;4.63;;;;;;;;;;5094303;28;20039;-70
2024/01/18 02:48:15;;;;;;;5.20;3.35;;;;;;;;;;5105778;22;20441;-67
2024/01/18 02:51:00;;;;;;;4.95;3.40;;;;;;;;;;5098736;28;20028;-67
2024/01/18 02:53:46;;;;;;;7.32;3.80;;;;;;;;;;5115592;28;20023;-67
2024/01/18 02:56:31;;;;;;;8.63;5.20;;;;;;;;;;5115647;28;20349;-67
2024/01/18 02:59:17;;;;;;;6.38;4.10;;;;;;;;;;5115949;28;20086;-67
2024/01/18 03:02:03;;;;;;;7.72;4.72;;;;;;;;;;5114381;28;20060;-67
2024/01/18 03:04:48;;;;;;;7.72;3.28;;;;;;;;;;5099904;28;20087;-67
2024/01/18 03:07:34;;;;;;;7.13;3.78;;;;;;;;;;5114784;28;20015;-67
2024/01/18 03:10:21;;;;;;;6.78;4.30;;;;;;;;;;5114269;28;20055;-67
2024/01/18 03:13:07;;;;;;;8.00;4.47;;;;;;;;;;5099939;28;20102;-67
2024/01/18 03:15:53;;;;;;;10.98;5.50;;;;;;;;;;5114268;28;20015;-67
2024/01/18 03:18:38;;;;;;;6.65;4.93;;;;;;;;;;5114608;28;20450;-67
2024/01/18 03:21:24;;;;;;;8.65;5.07;;;;;;;;;;5113636;28;20035;-67
2024/01/18 03:24:09;;;;;;;8.93;4.75;;;;;;;;;;5114866;28;20031;-67
2024/01/18 03:26:55;;;;;;;5.75;3.85;;;;;;;;;;5113835;28;20161;-67
2024/01/18 03:29:41;;;;;;;5.30;3.00;;;;;;;;;;5114194;28;20024;-67
2024/01/18 03:32:27;;;;;;;5.63;3.58;;;;;;;;;;5114172;28;20055;-67
2024/01/18 03:35:12;;;;;;;4.82;3.22;;;;;;;;;;5114258;28;20015;-67
2024/01/18 03:37:58;;;;;;;6.95;2.97;;;;;;;;;;5085744;28;20106;-67
2024/01/18 03:40:43;;;;;;;8.02;4.03;;;;;;;;;;5113514;28;20518;-67
2024/01/18 03:43:29;;;;;;;6.18;3.60;;;;;;;;;;5113497;28;20111;-67
2024/01/18 03:46:15;;;;;;;6.57;3.38;;;;;;;;;;5113843;28;20019;-68
2024/01/18 03:49:00;;;;;;;6.25;3.22;;;;;;;;;;5114140;28;20042;-67
2024/01/18 03:51:46;;;;;;;4.13;3.22;;;;;;;;;;5113214;28;20027;-67
2024/01/18 03:54:32;;;;;;;7.45;3.97;;;;;;;;;;5113414;28;20023;-67
2024/01/18 03:57:17;;;;;;;4.13;3.20;;;;;;;;;;5113918;28;20055;-67
2024/01/18 04:00:05;;;;;;;8.35;3.90;;;;;;;;;;5113705;28;20015;-67
2024/01/18 04:02:51;;;;;;;4.53;3.80;;;;;;;;;;5099349;28;20024;-67
2024/01/18 04:05:36;;;;;;;4.55;2.58;;;;;;;;;;5114486;28;20019;-67
2024/01/18 04:08:22;;;;;;;8.82;4.25;;;;;;;;;;5114100;28;20047;-67
2024/01/18 04:11:08;;;;;;;7.70;4.57;;;;;;;;;;5112892;28;20481;-67
2024/01/18 04:13:53;;;;;;;7.00;3.40;;;;;;;;;;5098651;28;20098;-67
2024/01/18 04:16:39;;;;;;;5.80;4.05;;;;;;;;;;5113284;28;20030;-67
2024/01/18 04:19:24;;;;;;;7.65;3.70;;;;;;;;;;5113058;28;20469;-67
2024/01/18 04:22:10;;;;;;;4.82;3.20;;;;;;;;;;5112802;28;20031;-67
2024/01/18 04:24:57;;;;;;;4.20;2.97;;;;;;;;;;5100014;28;20020;-67
2024/01/18 04:27:42;;;;;;;4.30;3.05;;;;;;;;;;5101586;28;20020;-67
2024/01/18 04:30:28;;;;;;;5.40;2.40;;;;;;;;;;5102235;28;20051;-67
2024/01/18 04:33:14;;;;;;;5.80;3.25;;;;;;;;;;5095145;28;20028;-67
2024/01/18 04:35:59;;;;;;;6.82;3.53;;;;;;;;;;5101822;28;20023;-67
2024/01/18 04:38:45;;;;;;;3.45;2.78;;;;;;;;;;5111778;28;20041;-67
2024/01/18 04:41:31;;;;;;;7.93;3.95;;;;;;;;;;5108592;28;20059;-67
2024/01/18 04:44:17;;;;;;;6.47;3.97;;;;;;;;;;5092643;28;20024;-67
2024/01/18 04:47:03;;;;;;;4.78;3.40;;;;;;;;;;5092419;28;20016;-67
2024/01/18 04:49:48;;;;;;;6.35;3.03;;;;;;;;;;5077059;28;20481;-67
2024/01/18 04:52:34;;;;;;;4.82;3.13;;;;;;;;;;5092359;28;20411;-67
2024/01/18 04:55:19;;;;;;;5.40;3.17;;;;;;;;;;5089530;28;20023;-67
2024/01/18 04:58:05;;;;;;;6.97;3.70;;;;;;;;;;5112193;28;20016;-67
2024/01/18 05:00:51;;;;;;;7.90;4.20;;;;;;;;;;5111964;28;20024;-67
2024/01/18 05:03:36;;;;;;;4.95;3.22;;;;;;;;;;5111293;28;20027;-67
2024/01/18 05:06:22;;;;;;;4.95;2.55;;;;;;;;;;5112548;28;20019;-67
2024/01/18 05:09:09;;;;;;;5.40;2.50;;;;;;;;;;5111926;28;20063;-67
2024/01/18 05:11:55;;;;;;;7.75;3.83;;;;;;;;;;5130553;28;20487;-67
2024/01/18 05:14:41;;;;;;;3.63;2.67;;;;;;;;;;5132349;28;20388;-67
2024/01/18 05:17:36;;;;;;;5.03;2.13;;;;;;;;;;5131720;28;20437;-67
2024/01/18 05:20:21;;;;;;;4.57;2.50;;;;;;;;;;5118863;28;20087;-67
2024/01/18 05:23:07;;;;;;;6.47;2.55;;;;;;;;;;5133622;28;20023;-68
2024/01/18 05:25:52;;;;;;;4.20;3.28;;;;;;;;;;5114455;28;20020;-67
2024/01/18 05:28:38;;;;;;;3.58;2.63;;;;;;;;;;5111209;28;20062;-67
2024/01/18 05:31:24;;;;;;;4.13;2.83;;;;;;;;;;5112095;28;20103;-67
2024/01/18 05:34:09;;;;;;;8.55;3.55;;;;;;;;;;5111432;28;20028;-67
2024/01/18 05:36:55;;;;;;;3.80;2.70;;;;;;;;;;5111771;28;20451;-67
2024/01/18 05:39:40;;;;;;;4.47;2.58;;;;;;;;;;5111592;28;20030;-67
2024/01/18 05:42:27;;;;;;;6.60;3.58;;;;;;;;;;5112512;28;20030;-66
2024/01/18 05:45:13;;;;;;;3.83;2.67;;;;;;;;;;5109544;28;20055;-67
2024/01/18 05:48:01;;;;;;;5.15;3.63;;;;;;;;;;5110903;28;20076;-67
2024/01/18 05:50:47;;;;;;;4.80;3.03;;;;;;;;;;5091264;28;20035;-67
2024/01/18 05:53:32;;;;;;;3.67;2.95;;;;;;;;;;5092215;28;20023;-67
2024/01/18 05:56:18;;;;;;;4.30;2.13;;;;;;;;;;5091798;28;20032;-67
2024/01/18 05:59:03;;;;;;;3.83;2.20;;;;;;;;;;5091441;28;20074;-67
2024/01/18 06:01:49;;;;;;;3.75;2.13;;;;;;;;;;5091339;28;20028;-67
2024/01/18 06:04:35;;;;;;;3.20;2.08;;;;;;;;;;5091651;28;20378;-67
2024/01/18 06:07:20;;;;;;;4.40;2.47;;;;;;;;;;5092549;28;20141;-67
2024/01/18 06:10:06;;;;;;;2.03;1.80;;;;;;;;;;5091589;28;20169;-67
2024/01/18 06:12:52;;;;;;;1.73;1.63;;;;;;;;;;5093043;28;20052;-67
2024/01/18 06:15:39;;;;;;;3.28;2.22;;;;;;;;;;5092750;28;20024;-67
2024/01/18 06:18:24;;;;;;;3.03;2.13;;;;;;;;;;5096159;28;20102;-67
2024/01/18 06:21:10;;;;;;;3.83;2.60;;;;;;;;;;5095198;28;20020;-67
2024/01/18 06:23:56;;;;;;;3.60;2.03;;;;;;;;;;5095734;28;20107;-67
2024/01/18 06:26:41;;;;;;;4.45;2.28;;;;;;;;;;5094895;28;20504;-67
2024/01/18 06:29:30;;;;;;;5.13;2.28;;;;;;;;;;5095842;28;20034;-67
2024/01/18 06:32:15;;;;;;;4.10;2.95;;;;;;;;;;5096018;28;20385;-67
2024/01/18 06:35:01;;;;;;;2.70;2.40;;;;;;;;;;5095583;28;20027;-67
2024/01/18 06:37:47;;;;;;;6.25;2.67;;;;;;;;;;5094915;28;20020;-67
2024/01/18 06:40:32;;;;;;;3.50;2.90;;;;;;;;;;5094644;28;20370;-67
2024/01/18 06:43:18;;;;;;;2.70;2.13;;;;;;;;;;5094697;28;20032;-67
2024/01/18 06:46:04;;;;;;;4.40;2.55;;;;;;;;;;5095883;28;20027;-67
2024/01/18 06:48:57;;;;;;;2.85;1.80;;;;;;;;;;5095428;28;20080;-67
2024/01/18 06:51:42;;;;;;;6.65;2.63;;;;;;;;;;5096255;28;20376;-67
2024/01/18 06:54:28;;;;;;;3.03;1.95;;;;;;;;;;5095532;28;20102;-67
2024/01/18 06:57:13;;;;;;;2.72;2.53;;;;;;;;;;5079483;28;20507;-67
2024/01/18 06:59:59;;;;;;;4.30;2.45;;;;;;;;;;5093802;28;20032;-67
2024/01/18 07:02:48;;;;;;;3.75;2.33;;;;;;;;;;5094525;28;20027;-67
2024/01/18 07:05:34;;;;;;;3.30;2.33;;;;;;;;;;5095905;28;20439;-67
2024/01/18 07:08:19;;;;;;;2.22;1.95;;;;;;;;;;5094692;28;20497;-67
2024/01/18 07:11:05;;;;;;;2.03;1.83;;;;;;;;;;5094436;28;20020;-67
2024/01/18 07:13:50;;;;;;;2.95;2.05;;;;;;;;;;5095353;28;20524;-68
2024/01/18 07:16:36;;;;;;;6.70;3.20;;;;;;;;;;5099571;28;20110;-67
2024/01/18 07:19:22;;;;;;;6.28;3.42;;;;;;;;;;5107711;28;20027;-66
2024/01/18 07:22:08;;;;;;;4.90;3.85;;;;;;;;;;5098186;28;20481;-67
2024/01/18 07:24:54;;;;;;;11.18;7.47;;;;;;;;;;5106084;28;20531;-67
2024/01/18 07:27:39;;;;;;;6.97;4.55;;;;;;;;;;5099911;28;20036;-67
2024/01/18 07:30:25;;;;;;;5.95;3.10;;;;;;;;;;5104180;28;20043;-67
2024/01/18 07:33:10;;;;;;;4.60;2.17;;;;;;;;;;5107106;28;20089;-67
2024/01/18 07:35:57;;;;;;;6.85;3.60;;;;;;;;;;5100592;28;20024;-67
2024/01/18 07:38:43;;;;;;;13.15;4.30;;;;;;;;;;5088877;28;20030;-68
2024/01/18 07:41:29;;;;;;;5.13;3.35;;;;;;;;;;5101300;28;20485;-67
2024/01/18 07:44:14;;;;;;;5.68;2.92;;;;;;;;;;5114218;28;20034;-67
2024/01/18 07:47:00;;;;;;;5.75;3.25;;;;;;;;;;5113892;28;20015;-67
2024/01/18 07:49:46;;;;;;;6.22;3.88;;;;;;;;;;5113740;28;20024;-67
2024/01/18 07:52:32;;;;;;;5.95;3.75;;;;;;;;;;5114094;28;20515;-68
2024/01/18 07:55:18;;;;;;;6.63;3.20;;;;;;;;;;5126645;27;20464;-67
2024/01/18 07:58:04;;;;;;;3.80;3.08;;;;;;;;;;5099168;28;20077;-67
2024/01/18 08:00:50;;;;;;;6.03;2.97;;;;;;;;;;5115113;28;20400;-67
2024/01/18 08:03:36;;;;;;;4.45;2.60;;;;;;;;;;5112789;28;20103;-67
2024/01/18 08:06:22;;;;;;;6.95;3.33;;;;;;;;;;5113016;28;20023;-67
2024/01/18 08:09:07;;;;;;;6.97;3.03;;;;;;;;;;5112735;28;20023;-67
2024/01/18 08:11:53;;;;;;;6.63;2.80;;;;;;;;;;5113259;28;20090;-67
2024/01/18 08:14:42;;;;;;;8.60;3.42;;;;;;;;;;5113039;28;20031;-67
2024/01/18 08:17:28;;;;;;;5.18;2.20;;;;;;;;;;5098395;28;20023;-67
2024/01/18 08:20:14;;;;;;;4.13;2.22;;;;;;;;;;5112990;28;20084;-68
2024/01/18 08:23:00;;;;;;;6.75;2.40;;;;;;;;;;5112786;28;20503;-68
2024/01/18 08:25:45;;;;;;;3.65;2.20;;;;;;;;;;5102621;28;20024;-67
2024/01/18 08:28:32;;;;;;;3.95;1.92;;;;;;;;;;5093950;28;20020;-67
2024/01/18 08:31:17;;;;;;;3.55;2.90;;;;;;;;;;5095847;28;20044;-67
2024/01/18 08:34:03;;;;;;;2.85;2.42;;;;;;;;;;5079728;28;20111;-67
2024/01/18 08:36:49;;;;;;;4.07;2.35;;;;;;;;;;5109646;28;20026;-67
2024/01/18 08:39:35;;;;;;;4.82;2.28;;;;;;;;;;5112451;28;20055;-67
2024/01/18 08:42:21;;;;;;;5.35;2.50;;;;;;;;;;5100410;28;20047;-68
2024/01/18 08:45:07;;;;;;;4.80;2.80;;;;;;;;;;5113085;28;20075;-68
2024/01/18 08:47:52;;;;;;;5.45;2.75;;;;;;;;;;5112026;28;20031;-67
2024/01/18 08:50:38;;;;;;;5.55;3.50;;;;;;;;;;5121854;22;20059;-68
2024/01/18 08:53:24;;;;;;;5.38;2.00;;;;;;;;;;5092021;28;20047;-68
2024/01/18 08:56:10;;;;;;;11.40;3.13;;;;;;;;;;5092460;28;20023;-68
2024/01/18 08:58:55;;;;;;;4.35;3.00;;;;;;;;;;5092826;28;20112;-68
2024/01/18 09:01:41;;;;;;;4.80;2.85;;;;;;;;;;5092174;28;20081;-68
2024/01/18 09:04:27;;;;;;;3.85;3.30;;;;;;;;;;5093037;28;20020;-68
2024/01/18 09:07:13;;;;;;;3.40;2.05;;;;;;;;;;5077465;28;20069;-68
2024/01/18 09:09:59;;;;;;;2.65;1.98;;;;;;;;;;5092055;28;20012;-68
2024/01/18 09:12:45;;;;;;;7.18;1.98;;;;;;;;;;5092225;28;20520;-68
2024/01/18 09:15:31;;;;;;;2.63;2.13;;;;;;;;;;5091259;28;20016;-69
2024/01/18 09:18:17;;;;;;;3.42;1.92;;;;;;;;;;5091182;28;20103;-68
2024/01/18 09:21:03;;;;;;;1.92;1.55;;;;;;;;;;5091843;28;20017;-67
2024/01/18 09:23:49;;;;;;;3.20;2.42;;;;;;;;;;5092236;28;20038;-67
2024/01/18 09:26:34;;;;;;;3.70;1.55;;;;;;;;;;5091832;28;20436;-68
2024/01/18 09:29:20;;;;;;;1.85;1.55;;;;;;;;;;5092868;28;20020;-68
2024/01/18 09:32:08;;;;;;;2.45;2.25;;;;;;;;;;5091776;28;20505;-68
2024/01/18 09:34:54;;;;;;;4.57;2.47;;;;;;;;;;5092585;28;20067;-69
2024/01/18 09:37:39;;;;;;;5.32;2.17;;;;;;;;;;5091959;28;20024;-68
2024/01/18 09:40:28;;;;;;;3.13;1.40;;;;;;;;;;5090896;28;20020;-69
2024/01/18 09:43:15;;;;;;;2.85;1.65;;;;;;;;;;5092403;28;20397;-68
2024/01/18 09:46:04;;;;;;;2.42;1.63;;;;;;;;;;5092532;28;20103;-69
2024/01/18 09:48:49;;;;;;;2.38;1.67;;;;;;;;;;5092288;28;20085;-69
2024/01/18 09:51:35;;;;;;;1.95;1.60;;;;;;;;;;5095381;28;20035;-68
2024/01/18 09:54:21;;;;;;;2.15;1.15;;;;;;;;;;5056125;28;20021;-69
2024/01/18 09:57:07;;;;;;;2.25;1.52;;;;;;;;;;5055750;28;20062;-68
2024/01/18 09:59:54;;;;;;;14.30;9.60;;;;;;;;;;5090777;28;20020;-69
2024/01/18 10:02:40;;;;;;;5.22;2.05;;;;;;;;;;5080755;28;20107;-68
2024/01/18 10:05:25;;;;;;;8.43;2.00;;;;;;;;;;5095575;28;20024;-69
2024/01/18 10:08:11;;;;;;;7.43;2.17;;;;;;;;;;5095962;28;20024;-68
2024/01/18 10:10:57;;;;;;;3.67;2.72;;;;;;;;;;5080442;28;20401;-69
2024/01/18 10:13:52;;;;;;;4.05;1.88;;;;;;;;;;5096044;28;20086;-67
2024/01/18 10:16:40;;;;;;;2.90;1.77;;;;;;;;;;5096104;28;20036;-68
2024/01/18 10:19:25;;;;;;;3.88;1.92;;;;;;;;;;5094860;28;20081;-68
2024/01/18 10:22:11;;;;;;;3.35;1.77;;;;;;;;;;5095054;28;20440;-69
2024/01/18 10:24:58;;;;;;;3.08;1.80;;;;;;;;;;5095193;28;20015;-68
2024/01/18 10:27:44;;;;;;;3.72;1.60;;;;;;;;;;5063557;28;20024;-69
2024/01/18 10:30:31;;;;;;;3.60;2.38;;;;;;;;;;5059071;28;20375;-68
2024/01/18 10:33:17;;;;;;;5.20;3.35;;;;;;;;;;5059567;28;20025;-68
2024/01/18 10:36:03;;;;;;;7.07;4.07;;;;;;;;;;5056851;28;20063;-68
2024/01/18 10:38:49;;;;;;;15.38;4.70;;;;;;;;;;5062656;28;20066;-68
2024/01/18 10:41:35;;;;;;;29.80;7.95;;;;;;;;;;5059423;28;20039;-68
2024/01/18 10:44:20;;;;;;;14.93;5.70;;;;;;;;;;5052497;28;20064;-67
2024/01/18 10:47:08;;;;;;;9.38;4.47;;;;;;;;;;5060438;28;20118;-68
2024/01/18 10:49:54;;;;;;;10.18;2.70;;;;;;;;;;5046331;28;20025;-68
2024/01/18 10:52:40;;;;;;;2.58;2.20;;;;;;;;;;5046942;28;20074;-68
2024/01/18 10:55:26;;;;;;;4.25;1.83;;;;;;;;;;5061288;28;20521;-69
2024/01/18 10:58:11;;;;;;;3.20;1.65;;;;;;;;;;5049790;28;20024;-69
2024/01/18 11:00:58;;;;;;;3.85;1.50;;;;;;;;;;5066679;28;20379;-68
2024/01/18 11:03:44;;;;;;;3.60;1.70;;;;;;;;;;5058716;28;20028;-68
2024/01/18 11:06:30;;;;;;;3.67;2.00;;;;;;;;;;5093101;28;20023;-68
2024/01/18 11:09:16;;;;;;;5.10;1.85;;;;;;;;;;5079830;28;20027;-68
2024/01/18 11:12:03;;;;;;;2.78;1.88;;;;;;;;;;5079955;28;20027;-68
2024/01/18 11:14:49;;;;;;;2.88;2.00;;;;;;;;;;5079933;28;20047;-69
2024/01/18 11:17:35;;;;;;;4.13;2.42;;;;;;;;;;5078226;28;20109;-68
2024/01/18 11:20:21;;;;;;;3.55;2.03;;;;;;;;;;5094741;28;20020;-68
2024/01/18 11:23:07;;;;;;;7.03;3.17;;;;;;;;;;5075151;28;20030;-68
2024/01/18 11:25:53;;;;;;;4.20;2.38;;;;;;;;;;5091643;28;20478;-68
2024/01/18 11:28:39;;;;;;;4.05;1.80;;;;;;;;;;5093264;28;20493;-69
2024/01/18 11:31:44;;;;;;;5.55;1.90;;;;;;;;;;5094073;28;20090;-68
2024/01/18 11:34:31;;;;;;;2.42;1.65;;;;;;;;;;5079175;28;20378;-68
2024/01/18 11:37:24;;;;;;;5.45;1.95;;;;;;;;;;5079063;28;20180;-68
2024/01/18 11:40:10;;;;;;;5.15;1.70;;;;;;;;;;5093816;28;20459;-69
2024/01/18 11:42:56;;;;;;;6.60;2.40;;;;;;;;;;5079018;28;20024;-69
2024/01/18 11:45:44;;;;;;;4.80;2.20;;;;;;;;;;5094333;28;20031;-69
2024/01/18 11:48:30;;;;;;;4.30;2.72;;;;;;;;;;5093732;28;20431;-69
2024/01/18 11:51:15;;;;;;;13.00;3.35;;;;;;;;;;5093229;28;20031;-68
2024/01/18 11:54:02;;;;;;;5.25;1.85;;;;;;;;;;5092382;28;20031;-69
2024/01/18 11:56:49;;;;;;;7.18;2.17;;;;;;;;;;5094057;28;20385;-69
2024/01/18 11:59:35;;;;;;;7.57;1.92;;;;;;;;;;5093564;28;20047;-69
2024/01/18 12:02:21;;;;;;;4.30;2.40;;;;;;;;;;5093740;28;20038;-69
2024/01/18 12:05:07;;;;;;;5.20;3.83;;;;;;;;;;5078789;28;20030;-69
2024/01/18 12:07:53;;;;;;;7.75;2.58;;;;;;;;;;5092838;28;20020;-69
2024/01/18 12:10:39;;;;;;;3.92;2.03;;;;;;;;;;5093943;28;20473;-69
2024/01/18 12:13:26;;;;;;;9.90;2.55;;;;;;;;;;5093503;28;20038;-69
2024/01/18 12:16:12;;;;;;;10.07;2.20;;;;;;;;;;5094192;28;20085;-69
2024/01/18 12:18:57;;;;;;;5.47;1.83;;;;;;;;;;5078960;28;20103;-69
2024/01/18 12:21:43;;;;;;;6.72;2.13;;;;;;;;;;5093071;28;20035;-69
2024/01/18 12:24:28;;;;;;;5.43;1.88;;;;;;;;;;5093305;28;20031;-69
2024/01/18 12:27:15;;;;;;;3.13;1.63;;;;;;;;;;5093472;28;20051;-69
2024/01/18 12:30:01;;;;;;;3.65;1.80;;;;;;;;;;5093102;28;20024;-69
2024/01/18 12:32:49;;;;;;;4.82;2.20;;;;;;;;;;5077366;28;20024;-69
2024/01/18 12:35:37;;;;;;;4.72;1.85;;;;;;;;;;5093835;28;20025;-69
2024/01/18 12:38:24;;;;;;;6.97;2.35;;;;;;;;;;5093675;28;20020;-69
2024/01/18 12:41:10;;;;;;;6.97;2.08;;;;;;;;;;5078557;28;20109;-69
2024/01/18 12:44:09;;;;;;;4.85;1.90;;;;;;;;;;5093001;28;20047;-69
2024/01/18 12:46:55;;;;;;;9.57;2.35;;;;;;;;;;5092854;28;20039;-69
2024/01/18 12:49:40;;;;;;;4.65;2.03;;;;;;;;;;5093024;28;20024;-69
2024/01/18 12:52:32;;;;;;;11.93;2.25;;;;;;;;;;5093299;28;20038;-69
2024/01/18 12:55:18;;;;;;;8.75;2.80;;;;;;;;;;5078520;28;20485;-69
2024/01/18 12:58:04;;;;;;;7.15;2.42;;;;;;;;;;5092641;28;20047;-69
2024/01/18 13:00:52;;;;;;;4.57;2.30;;;;;;;;;;5092698;28;20081;-69
2024/01/18 13:03:38;;;;;;;4.13;2.53;;;;;;;;;;5093019;28;20492;-69
2024/01/18 13:06:24;;;;;;;3.67;2.05;;;;;;;;;;5092900;28;20478;-70
2024/01/18 13:09:11;;;;;;;7.68;2.35;;;;;;;;;;5092697;28;20081;-70
2024/01/18 13:12:02;;;;;;;5.85;2.10;;;;;;;;;;5093009;28;20021;-70
2024/01/18 13:14:50;;;;;;;12.30;3.25;;;;;;;;;;5093190;28;20535;-70
2024/01/18 13:17:39;;;;;;;8.52;2.13;;;;;;;;;;5093490;28;20077;-70
2024/01/18 13:20:25;;;;;;;5.28;2.30;;;;;;;;;;5066848;28;20033;-70
2024/01/18 13:23:10;;;;;;;4.00;1.75;;;;;;;;;;5061573;28;20028;-71
2024/01/18 13:25:56;;;;;;;7.70;1.73;;;;;;;;;;5063558;28;20108;-70
2024/01/18 13:28:42;;;;;;;5.75;1.73;;;;;;;;;;5049994;28;20147;-70
2024/01/18 13:31:27;;;;;;;12.60;2.47;;;;;;;;;;5066341;28;20028;-67
2024/01/18 13:34:13;;;;;;;6.70;2.45;;;;;;;;;;5054909;28;20029;-66
2024/01/18 13:37:00;;;;;;;9.90;2.47;;;;;;;;;;5064877;28;20103;-67
2024/01/18 13:39:46;;;;;;;6.03;2.70;;;;;;;;;;5066534;28;20028;-67
2024/01/18 13:42:31;;;;;;;3.95;1.70;;;;;;;;;;5061173;28;20558;-67
2024/01/18 13:45:17;;;;;;;2.67;1.90;;;;;;;;;;5060740;28;20033;-67
2024/01/18 13:48:03;;;;;;;8.23;1.92;;;;;;;;;;5066644;28;20473;-69
2024/01/18 13:50:48;;;;;;;8.10;1.80;;;;;;;;;;5050521;28;20048;-68
2024/01/18 13:53:34;;;;;;;5.72;1.38;;;;;;;;;;5057027;28;20032;-69
2024/01/18 13:56:22;;;;;;;3.38;2.30;;;;;;;;;;5049684;28;20024;-68
2024/01/18 13:59:07;;;;;;;7.78;2.15;;;;;;;;;;5041185;28;20021;-69
2024/01/18 14:01:53;;;;;;;5.72;1.60;;;;;;;;;;5063758;28;20028;-68
2024/01/18 14:04:39;;;;;;;4.38;2.40;;;;;;;;;;5060539;28;20025;-68
2024/01/18 14:07:24;;;;;;;8.88;2.60;;;;;;;;;;5045718;28;20558;-68
2024/01/18 14:10:10;;;;;;;3.47;1.92;;;;;;;;;;5071800;28;20177;-71
2024/01/18 14:12:55;;;;;;;9.23;2.22;;;;;;;;;;5047005;28;20024;-70
2024/01/18 14:15:41;;;;;;;6.90;1.92;;;;;;;;;;5066197;28;20017;-70
2024/01/18 14:18:27;;;;;;;3.45;2.08;;;;;;;;;;5066722;28;20131;-71
2024/01/18 14:21:12;;;;;;;6.93;2.28;;;;;;;;;;5065187;28;20024;-71
2024/01/18 14:23:58;;;;;;;3.97;2.40;;;;;;;;;;5065582;28;20056;-70
2024/01/18 14:26:43;;;;;;;4.50;1.92;;;;;;;;;;5062069;28;20028;-71
2024/01/18 14:29:29;;;;;;;5.68;1.92;;;;;;;;;;5060627;28;20516;-71
2024/01/18 14:32:15;;;;;;;5.90;1.83;;;;;;;;;;5061798;28;20429;-71
2024/01/18 14:35:00;;;;;;;4.47;2.20;;;;;;;;;;5059712;28;20021;-71
2024/01/18 14:37:46;;;;;;;144.88;36.78;;;;;;;;;;5063165;28;20375;-71
2024/01/18 14:40:32;;;;;;;51.38;19.35;;;;;;;;;;5062498;28;20430;-71
2024/01/18 14:43:18;;;;;;;12.38;5.05;;;;;;;;;;5045382;28;20031;-70
2024/01/18 14:46:04;;;;;;;8.57;3.22;;;;;;;;;;5063674;28;20155;-71
2024/01/18 14:48:50;;;;;;;15.27;3.58;;;;;;;;;;5065656;28;20022;-70
2024/01/18 14:51:35;;;;;;;6.00;2.38;;;;;;;;;;5061300;28;20033;-73
2024/01/18 14:54:21;;;;;;;7.75;2.03;;;;;;;;;;5069322;28;20025;-72
2024/01/18 14:57:07;;;;;;;6.72;2.28;;;;;;;;;;5065060;28;20505;-73
2024/01/18 14:59:54;;;;;;;4.95;1.92;;;;;;;;;;5063798;28;20121;-72
2024/01/18 15:02:40;;;;;;;12.68;2.33;;;;;;;;;;5061376;28;20029;-72
2024/01/18 15:05:26;;;;;;;5.38;1.95;;;;;;;;;;5056270;28;20447;-72
2024/01/18 15:08:12;;;;;;;8.20;2.20;;;;;;;;;;5060338;28;20021;-72
2024/01/18 15:10:58;;;;;;;5.78;2.17;;;;;;;;;;5063085;28;20021;-73
2024/01/18 15:13:44;;;;;;;10.13;2.20;;;;;;;;;;5050825;28;20028;-69
2024/01/18 15:16:31;;;;;;;7.47;2.03;;;;;;;;;;5072805;28;20028;-70
2024/01/18 15:19:17;;;;;;;6.38;1.73;;;;;;;;;;5072607;28;20063;-69
2024/01/18 15:22:02;;;;;;;8.23;2.15;;;;;;;;;;5074295;28;20501;-69
2024/01/18 15:24:48;;;;;;;4.88;2.45;;;;;;;;;;5073346;28;20449;-69
2024/01/18 15:27:34;;;;;;;9.35;2.78;;;;;;;;;;5074049;28;20085;-69
2024/01/18 15:30:20;;;;;;;9.13;2.35;;;;;;;;;;5073991;28;20031;-69
2024/01/18 15:33:07;;;;;;;9.32;2.35;;;;;;;;;;5072374;28;20490;-69
2024/01/18 15:35:53;;;;;;;11.23;4.28;;;;;;;;;;5058150;28;20020;-69
2024/01/18 15:38:40;;;;;;;9.63;4.25;;;;;;;;;;5074025;28;20107;-69
2024/01/18 15:41:26;;;;;;;8.90;3.08;;;;;;;;;;5058620;28;20512;-69
2024/01/18 15:44:15;;;;;;;3.75;2.42;;;;;;;;;;5072983;28;20473;-69
2024/01/18 15:47:04;;;;;;;3.22;1.50;;;;;;;;;;5069702;28;20024;-70
2024/01/18 15:49:50;;;;;;;10.07;2.92;;;;;;;;;;5071760;28;20034;-69
2024/01/18 15:52:36;;;;;;;6.07;2.83;;;;;;;;;;5072503;28;20044;-69
2024/01/18 15:55:21;;;;;;;6.75;2.65;;;;;;;;;;5074171;28;20111;-70
2024/01/18 15:58:08;;;;;;;5.82;2.33;;;;;;;;;;5092333;28;20108;-69
2024/01/18 16:00:54;;;;;;;5.60;2.53;;;;;;;;;;5077171;28;20073;-69
2024/01/18 16:03:40;;;;;;;5.07;3.25;;;;;;;;;;5093504;28;20024;-69
2024/01/18 16:06:26;;;;;;;5.50;2.78;;;;;;;;;;5092452;28;20062;-69
2024/01/18 16:09:12;;;;;;;12.30;2.20;;;;;;;;;;5093210;28;20443;-69
2024/01/18 16:11:57;;;;;;;35.78;11.73;;;;;;;;;;5092714;28;20012;-70
2024/01/18 16:14:46;;;;;;;26.70;9.93;;;;;;;;;;5092735;28;20103;-69
2024/01/18 16:17:32;;;;;;;31.02;7.57;;;;;;;;;;5062660;28;20035;-69
2024/01/18 16:20:17;;;;;;;18.80;4.43;;;;;;;;;;5091590;28;20020;-70
2024/01/18 16:23:03;;;;;;;11.65;4.00;;;;;;;;;;5092593;28;20043;-69
2024/01/18 16:25:49;;;;;;;12.25;4.43;;;;;;;;;;5092254;28;20053;-69
2024/01/18 16:28:34;;;;;;;13.25;4.10;;;;;;;;;;5092989;28;20051;-70
2024/01/18 16:31:20;;;;;;;26.63;6.75;;;;;;;;;;5093108;28;20020;-69
2024/01/18 16:34:06;;;;;;;27.90;7.95;;;;;;;;;;5091941;28;20453;-70